createdAt,value
2019-03-29T00:01:12.420Z,24.02
2019-03-29T00:03:40.858Z,23.96
2019-03-29T00:06:09.309Z,23.97
2019-03-29T00:08:37.709Z,24.00
2019-03-29T00:11:06.168Z,23.95
2019-03-29T00:13:34.564Z,23.94
2019-03-29T00:16:03.021Z,23.97
2019-03-29T00:18:31.458Z,23.98
2019-03-29T00:20:59.928Z,23.94
2019-03-29T00:23:28.357Z,23.96
2019-03-29T00:25:56.818Z,23.95
2019-03-29T00:28:25.247Z,23.96
2019-03-29T00:30:53.717Z,23.93
2019-03-29T00:33:22.169Z,23.96
2019-03-29T00:35:50.737Z,23.98
2019-03-29T00:38:19.212Z,23.93
2019-03-29T00:40:47.645Z,23.92
2019-03-29T00:43:16.113Z,23.89
2019-03-29T00:45:45.173Z,23.96
2019-03-29T00:48:14.146Z,23.94
2019-03-29T00:50:42.600Z,23.93
2019-03-29T00:53:11.049Z,23.92
2019-03-29T00:55:39.555Z,23.91
2019-03-29T00:58:07.989Z,23.92
2019-03-29T01:00:36.472Z,23.89
2019-03-29T01:03:04.921Z,23.89
2019-03-29T01:05:33.364Z,23.92
2019-03-29T01:08:07.640Z,23.93
2019-03-29T01:10:31.926Z,23.92
2019-03-29T01:13:00.381Z,23.92
2019-03-29T01:15:28.821Z,23.89
2019-03-29T01:17:57.250Z,23.88
2019-03-29T01:20:25.711Z,23.89
2019-03-29T01:22:54.152Z,23.85
2019-03-29T01:25:22.616Z,23.86
2019-03-29T01:27:51.062Z,23.92
2019-03-29T01:30:19.515Z,23.87
2019-03-29T01:32:47.936Z,23.89
2019-03-29T01:35:16.368Z,23.84
2019-03-29T01:37:45.375Z,23.88
2019-03-29T01:40:14.655Z,23.90
2019-03-29T01:42:43.071Z,23.83
2019-03-29T01:45:11.556Z,23.87
2019-03-29T01:47:39.999Z,23.85
2019-03-29T01:50:08.565Z,23.84
2019-03-29T01:52:37.047Z,23.89
2019-03-29T01:55:05.588Z,23.89
2019-03-29T01:57:34.091Z,23.88
2019-03-29T02:00:02.629Z,23.79
2019-03-29T02:02:31.126Z,23.78
2019-03-29T02:05:00.221Z,23.79
2019-03-29T02:07:29.368Z,23.77
2019-03-29T02:09:57.849Z,23.76
2019-03-29T02:12:26.288Z,23.78
2019-03-29T02:14:54.860Z,23.76
2019-03-29T02:17:23.377Z,23.74
2019-03-29T02:19:51.852Z,23.74
2019-03-29T02:22:20.322Z,23.74
2019-03-29T02:24:49.312Z,23.75
2019-03-29T02:27:18.458Z,23.70
2019-03-29T02:29:46.912Z,23.71
2019-03-29T02:32:15.373Z,23.72
2019-03-29T02:34:44.144Z,23.71
2019-03-29T02:37:12.734Z,23.72
2019-03-29T02:39:41.158Z,23.72
2019-03-29T02:42:09.593Z,23.73
2019-03-29T02:44:38.010Z,23.68
2019-03-29T02:47:06.487Z,23.69
2019-03-29T02:49:34.962Z,23.68
2019-03-29T02:52:03.607Z,23.68
2019-03-29T02:54:32.027Z,23.68
2019-03-29T02:57:00.503Z,23.67
2019-03-29T02:59:29.043Z,23.67
2019-03-29T03:01:57.474Z,23.65
2019-03-29T03:04:25.916Z,23.64
2019-03-29T03:06:54.370Z,23.66
2019-03-29T03:09:22.817Z,23.68
2019-03-29T03:11:51.286Z,23.64
2019-03-29T03:14:19.741Z,23.64
2019-03-29T03:16:48.183Z,23.63
2019-03-29T03:19:16.608Z,23.62
2019-03-29T03:21:45.073Z,23.61
2019-03-29T03:24:13.569Z,23.60
2019-03-29T03:26:42.119Z,23.58
2019-03-29T03:29:10.581Z,23.60
2019-03-29T03:31:39.033Z,23.60
2019-03-29T03:34:07.488Z,23.59
2019-03-29T03:36:35.967Z,23.61
2019-03-29T03:39:05.466Z,23.59
2019-03-29T03:41:33.884Z,23.57
2019-03-29T03:44:02.321Z,23.58
2019-03-29T03:46:30.780Z,23.57
2019-03-29T03:48:59.192Z,23.60
2019-03-29T03:51:27.658Z,23.58
2019-03-29T03:53:56.080Z,23.59
2019-03-29T03:56:24.532Z,23.54
2019-03-29T03:58:52.951Z,23.57
2019-03-29T04:01:21.378Z,23.53
2019-03-29T04:03:49.837Z,23.53
2019-03-29T04:06:18.267Z,23.53
2019-03-29T04:08:46.679Z,23.52
2019-03-29T04:11:15.121Z,23.54
2019-03-29T04:13:43.542Z,23.52
2019-03-29T04:16:12.000Z,23.53
2019-03-29T04:18:40.427Z,23.50
2019-03-29T04:21:08.875Z,23.52
2019-03-29T04:26:04.320Z,23.54
2019-03-29T04:28:32.755Z,23.48
2019-03-29T04:31:01.204Z,23.51
2019-03-29T04:33:29.677Z,23.49
2019-03-29T04:35:58.221Z,23.48
2019-03-29T04:38:26.648Z,23.49
2019-03-29T04:40:55.138Z,23.48
2019-03-29T04:43:23.602Z,23.48
2019-03-29T04:45:52.051Z,23.49
2019-03-29T04:48:20.490Z,23.49
2019-03-29T04:53:15.911Z,23.48
2019-03-29T04:55:44.340Z,23.51
2019-03-29T04:58:12.743Z,23.48
2019-03-29T05:00:41.312Z,23.51
2019-03-29T05:05:36.764Z,23.48
2019-03-29T05:08:05.180Z,23.49
2019-03-29T05:10:33.618Z,23.46
2019-03-29T05:13:02.068Z,23.46
2019-03-29T05:15:30.519Z,23.44
2019-03-29T05:17:58.930Z,23.46
2019-03-29T05:20:27.401Z,23.44
2019-03-29T05:22:55.905Z,23.44
2019-03-29T05:25:24.408Z,23.44
2019-03-29T05:27:52.957Z,23.43
2019-03-29T05:30:21.360Z,23.42
2019-03-29T05:32:49.837Z,23.42
2019-03-29T05:35:18.292Z,23.43
2019-03-29T05:37:46.785Z,23.42
2019-03-29T05:40:15.249Z,23.42
2019-03-29T05:42:43.729Z,23.41
2019-03-29T05:45:12.280Z,23.42
2019-03-29T05:47:40.715Z,23.42
2019-03-29T05:50:09.182Z,23.45
2019-03-29T05:52:37.671Z,23.43
2019-03-29T05:55:06.165Z,23.43
2019-03-29T05:57:34.592Z,23.39
2019-03-29T06:00:05.379Z,23.31
2019-03-29T06:02:33.858Z,23.24
2019-03-29T06:05:02.281Z,23.10
2019-03-29T06:07:30.769Z,23.13
2019-03-29T06:09:59.284Z,23.12
2019-03-29T06:12:27.805Z,23.01
2019-03-29T06:14:56.454Z,23.03
2019-03-29T06:17:24.873Z,23.19
2019-03-29T06:19:53.321Z,23.31
2019-03-29T06:22:21.748Z,23.34
2019-03-29T06:24:50.337Z,23.40
2019-03-29T06:27:18.752Z,23.49
2019-03-29T06:29:47.176Z,23.48
2019-03-29T06:32:15.571Z,23.47
2019-03-29T06:34:43.986Z,23.48
2019-03-29T06:37:12.431Z,23.53
2019-03-29T06:39:40.887Z,23.56
2019-03-29T06:42:09.293Z,23.61
2019-03-29T06:44:37.701Z,23.63
2019-03-29T06:47:06.214Z,23.64
2019-03-29T06:49:34.725Z,23.66
2019-03-29T06:52:03.172Z,23.68
2019-03-29T06:54:31.576Z,23.62
2019-03-29T06:57:00.032Z,23.63
2019-03-29T06:59:28.469Z,23.66
2019-03-29T07:01:56.875Z,23.69
2019-03-29T07:04:25.268Z,23.67
2019-03-29T07:06:53.705Z,23.74
2019-03-29T07:09:22.204Z,23.82
2019-03-29T07:11:50.611Z,23.77
2019-03-29T07:14:18.995Z,23.80
2019-03-29T07:16:47.427Z,23.86
2019-03-29T07:19:15.811Z,23.95
2019-03-29T07:21:44.222Z,24.00
2019-03-29T07:24:12.619Z,24.04
2019-03-29T07:26:41.023Z,24.01
2019-03-29T07:29:09.431Z,24.09
2019-03-29T07:31:37.833Z,23.96
2019-03-29T07:34:06.284Z,24.04
2019-03-29T07:36:34.687Z,24.04
2019-03-29T07:39:03.095Z,24.07
2019-03-29T07:41:32.617Z,24.15
2019-03-29T07:44:01.166Z,24.15
2019-03-29T07:46:29.676Z,24.17
2019-03-29T07:48:58.077Z,24.04
2019-03-29T07:51:26.480Z,24.12
2019-03-29T07:53:54.934Z,24.12
2019-03-29T07:56:23.380Z,24.15
2019-03-29T07:58:51.838Z,24.21
2019-03-29T08:01:20.264Z,24.19
2019-03-29T08:03:51.229Z,24.26
2019-03-29T08:06:19.415Z,24.35
2019-03-29T08:08:47.857Z,24.27
2019-03-29T08:11:26.032Z,24.23
2019-03-29T08:13:46.291Z,24.42
2019-03-29T08:16:14.713Z,24.46
2019-03-29T08:18:43.116Z,24.50
2019-03-29T08:21:11.540Z,24.51
2019-03-29T08:23:40.004Z,24.51
2019-03-29T08:26:08.404Z,24.48
2019-03-29T08:28:36.801Z,24.53
2019-03-29T08:31:05.325Z,24.56
2019-03-29T08:33:33.743Z,24.61
2019-03-29T08:36:02.153Z,24.66
2019-03-29T08:38:30.554Z,24.52
2019-03-29T08:40:59.087Z,24.62
2019-03-29T08:43:27.631Z,24.63
2019-03-29T08:45:57.576Z,24.77
2019-03-29T08:48:26.479Z,24.68
2019-03-29T08:50:55.180Z,24.76
2019-03-29T08:53:27.206Z,24.76
2019-03-29T08:55:53.889Z,24.85
2019-03-29T08:58:22.296Z,24.93
2019-03-29T09:00:50.780Z,24.88
2019-03-29T09:03:19.207Z,24.84
2019-03-29T09:05:47.616Z,24.86
2019-03-29T09:08:16.025Z,24.89
2019-03-29T09:10:44.420Z,24.79
2019-03-29T09:13:12.925Z,24.75
2019-03-29T09:15:41.316Z,24.78
2019-03-29T09:18:09.858Z,24.78
2019-03-29T09:20:38.257Z,24.84
2019-03-29T09:23:10.013Z,24.85
2019-03-29T09:25:40.160Z,24.95
2019-03-29T09:28:06.790Z,25.00
2019-03-29T09:30:35.204Z,24.92
2019-03-29T09:33:03.632Z,24.95
2019-03-29T09:35:32.028Z,24.99
2019-03-29T09:38:00.432Z,25.02
2019-03-29T09:40:28.843Z,24.99
2019-03-29T09:43:07.030Z,25.04
2019-03-29T09:45:27.479Z,24.95
2019-03-29T09:47:56.168Z,25.06
2019-03-29T09:50:24.685Z,25.06
2019-03-29T09:52:53.080Z,25.06
2019-03-29T09:55:21.483Z,25.08
2019-03-29T09:57:49.991Z,25.09
2019-03-29T10:00:23.040Z,25.00
2019-03-29T10:02:48.459Z,24.93
2019-03-29T10:05:19.837Z,24.90
2019-03-29T10:07:46.979Z,25.06
2019-03-29T10:10:15.380Z,24.98
2019-03-29T10:12:44.213Z,25.05
2019-03-29T10:15:12.613Z,25.13
2019-03-29T10:17:41.007Z,25.17
2019-03-29T10:20:09.413Z,25.19
2019-03-29T10:22:37.905Z,25.25
2019-03-29T10:25:18.324Z,25.25
2019-03-29T10:27:36.469Z,25.24
2019-03-29T10:30:05.232Z,25.23
2019-03-29T10:32:33.709Z,25.26
2019-03-29T10:35:02.171Z,25.21
2019-03-29T10:37:30.620Z,25.24
2019-03-29T10:39:59.134Z,25.30
2019-03-29T10:42:27.588Z,25.27
2019-03-29T10:44:56.023Z,25.25
2019-03-29T10:47:42.049Z,25.29
2019-03-29T10:49:54.884Z,25.22
2019-03-29T10:52:23.364Z,25.25
2019-03-29T10:54:51.928Z,25.27
2019-03-29T10:57:20.387Z,25.28
2019-03-29T10:59:48.861Z,25.25
2019-03-29T11:02:17.307Z,25.30
2019-03-29T11:04:45.873Z,25.27
2019-03-29T11:07:14.445Z,25.29
2019-03-29T11:09:43.077Z,25.31
2019-03-29T11:12:11.634Z,25.22
2019-03-29T11:14:40.210Z,25.30
2019-03-29T11:17:08.682Z,25.33
2019-03-29T11:19:37.166Z,25.27
2019-03-29T11:22:05.671Z,25.23
2019-03-29T11:24:34.168Z,25.19
2019-03-29T11:27:02.650Z,25.20
2019-03-29T11:29:31.112Z,25.25
2019-03-29T11:31:59.573Z,25.20
2019-03-29T11:34:28.061Z,25.18
2019-03-29T11:36:56.552Z,25.22
2019-03-29T11:39:27.473Z,25.24
2019-03-29T11:41:55.116Z,25.17
2019-03-29T11:44:23.551Z,25.13
2019-03-29T11:46:52.040Z,25.11
2019-03-29T11:49:20.532Z,24.15
2019-03-29T11:51:48.980Z,25.12
2019-03-29T11:54:17.534Z,25.12
2019-03-29T11:56:47.803Z,25.14
2019-03-29T11:59:16.426Z,25.13
2019-03-29T12:01:44.951Z,25.13
2019-03-29T12:04:13.432Z,25.14
2019-03-29T12:06:41.926Z,25.16
2019-03-29T12:09:10.336Z,25.12
2019-03-29T12:11:38.797Z,25.13
2019-03-29T12:14:07.294Z,25.17
2019-03-29T12:16:35.872Z,25.18
2019-03-29T12:19:04.396Z,25.17
2019-03-29T12:21:32.928Z,25.19
2019-03-29T12:24:01.445Z,25.21
2019-03-29T12:26:29.895Z,25.17
2019-03-29T12:28:58.365Z,25.19
2019-03-29T12:31:26.981Z,25.16
2019-03-29T12:33:55.485Z,25.18
2019-03-29T12:36:24.032Z,25.19
2019-03-29T12:38:52.623Z,25.19
2019-03-29T12:41:21.181Z,25.20
2019-03-29T12:43:55.600Z,25.19
2019-03-29T12:46:19.852Z,25.19
2019-03-29T12:48:50.291Z,25.18
2019-03-29T12:51:18.479Z,25.20
2019-03-29T12:53:47.008Z,25.20
2019-03-29T12:56:15.516Z,25.22
2019-03-29T12:58:44.055Z,25.24
2019-03-29T13:01:12.731Z,25.24
2019-03-29T13:03:41.300Z,25.37
2019-03-29T13:06:09.808Z,25.28
2019-03-29T13:08:38.331Z,25.26
2019-03-29T13:11:06.950Z,25.28
2019-03-29T13:13:35.491Z,25.26
2019-03-29T13:16:03.988Z,25.31
2019-03-29T13:18:32.630Z,25.28
2019-03-29T13:21:01.076Z,25.28
2019-03-29T13:23:29.569Z,25.41
2019-03-29T13:25:58.102Z,25.47
2019-03-29T13:28:26.562Z,25.52
2019-03-29T13:30:55.051Z,25.46
2019-03-29T13:33:23.576Z,25.62
2019-03-29T13:35:52.055Z,25.58
2019-03-29T13:38:20.816Z,25.67
2019-03-29T13:40:49.554Z,25.55
2019-03-29T13:43:18.070Z,25.55
2019-03-29T13:45:46.539Z,25.67
2019-03-29T13:48:15.014Z,25.69
2019-03-29T13:50:43.455Z,25.73
2019-03-29T13:53:11.958Z,25.72
2019-03-29T13:55:40.622Z,25.68
2019-03-29T13:58:09.066Z,25.62
2019-03-29T14:00:37.549Z,25.58
2019-03-29T14:03:05.936Z,25.63
2019-03-29T14:05:34.338Z,25.56
2019-03-29T14:08:02.791Z,25.64
2019-03-29T14:10:31.261Z,25.67
2019-03-29T14:12:59.652Z,25.66
2019-03-29T14:15:28.283Z,25.68
2019-03-29T14:17:56.792Z,25.57
2019-03-29T14:20:30.400Z,25.60
2019-03-29T14:22:58.860Z,25.62
2019-03-29T14:25:27.322Z,25.58
2019-03-29T14:27:55.864Z,25.61
2019-03-29T14:30:24.343Z,25.58
2019-03-29T14:32:52.825Z,25.53
2019-03-29T14:35:21.336Z,25.54
2019-03-29T14:37:49.774Z,25.55
2019-03-29T14:40:18.259Z,25.57
2019-03-29T14:42:46.713Z,25.60
2019-03-29T14:45:15.170Z,25.56
2019-03-29T14:47:44.046Z,25.52
2019-03-29T14:50:12.597Z,25.48
2019-03-29T14:52:41.022Z,25.49
2019-03-29T14:55:09.700Z,25.52
2019-03-29T14:57:38.145Z,25.57
2019-03-29T15:00:07.002Z,25.51
2019-03-29T15:02:35.440Z,25.56
2019-03-29T15:05:04.275Z,25.53
2019-03-29T15:07:32.781Z,25.56
2019-03-29T15:10:01.243Z,25.57
2019-03-29T15:12:29.726Z,25.54
2019-03-29T15:15:06.061Z,25.52
2019-03-29T15:17:28.240Z,25.55
2019-03-29T15:19:56.762Z,25.54
2019-03-29T15:22:25.342Z,25.56
2019-03-29T15:24:53.882Z,25.60
2019-03-29T15:27:22.328Z,25.55
2019-03-29T15:29:50.781Z,25.62
2019-03-29T15:32:19.240Z,25.52
2019-03-29T15:34:47.746Z,25.49
2019-03-29T15:37:16.245Z,25.51
2019-03-29T15:39:44.745Z,25.54
2019-03-29T15:42:13.213Z,25.57
2019-03-29T15:44:41.736Z,25.53
2019-03-29T15:47:10.200Z,25.51
2019-03-29T15:49:38.709Z,25.49
2019-03-29T15:52:07.354Z,25.54
2019-03-29T15:54:35.810Z,25.55
2019-03-29T15:57:04.407Z,25.58
2019-03-29T15:59:32.901Z,25.62
2019-03-29T16:02:01.365Z,25.52
2019-03-29T16:04:29.905Z,25.52
2019-03-29T16:06:58.375Z,25.52
2019-03-29T16:09:26.843Z,25.55
2019-03-29T16:11:56.494Z,25.52
2019-03-29T16:14:25.090Z,25.50
2019-03-29T16:16:53.592Z,25.51
2019-03-29T16:19:22.078Z,25.49
2019-03-29T16:21:50.576Z,25.50
2019-03-29T16:24:19.029Z,25.44
2019-03-29T16:26:47.515Z,25.48
2019-03-29T16:29:16.079Z,25.47
2019-03-29T16:31:44.585Z,25.45
2019-03-29T16:34:13.048Z,25.41
2019-03-29T16:36:41.527Z,25.41
2019-03-29T16:39:10.133Z,25.40
2019-03-29T16:41:38.580Z,25.40
2019-03-29T16:44:06.998Z,25.37
2019-03-29T16:46:35.496Z,25.35
2019-03-29T16:49:03.924Z,25.36
2019-03-29T16:51:32.336Z,25.33
2019-03-29T16:54:00.744Z,25.37
2019-03-29T16:56:29.140Z,25.28
2019-03-29T16:58:57.545Z,25.26
2019-03-29T17:01:25.973Z,25.24
2019-03-29T17:03:54.385Z,25.19
2019-03-29T17:06:22.788Z,25.18
2019-03-29T17:08:51.202Z,25.19
2019-03-29T17:11:19.715Z,25.19
2019-03-29T17:13:48.150Z,25.19
2019-03-29T17:16:29.403Z,25.17
2019-03-29T17:18:46.606Z,25.17
2019-03-29T17:21:15.004Z,25.15
2019-03-29T17:23:43.398Z,25.18
2019-03-29T17:26:11.900Z,25.17
2019-03-29T17:28:40.335Z,25.17
2019-03-29T17:31:09.802Z,25.13
2019-03-29T17:33:38.201Z,25.14
2019-03-29T17:36:06.624Z,25.13
2019-03-29T17:38:35.077Z,25.09
2019-03-29T17:41:03.506Z,25.09
2019-03-29T17:43:31.995Z,25.07
2019-03-29T17:46:00.392Z,25.08
2019-03-29T17:48:28.787Z,25.04
2019-03-29T17:50:57.318Z,25.02
2019-03-29T17:53:25.716Z,25.02
2019-03-29T17:55:54.160Z,25.02
2019-03-29T17:58:22.560Z,25.03
2019-03-29T18:00:50.969Z,25.01
2019-03-29T18:03:19.372Z,25.02
2019-03-29T18:05:47.830Z,25.04
2019-03-29T18:08:16.273Z,25.04
2019-03-29T18:10:44.659Z,25.03
2019-03-29T18:13:13.068Z,25.04
2019-03-29T18:15:41.583Z,25.00
2019-03-29T18:18:12.955Z,25.00
2019-03-29T18:20:40.151Z,24.96
2019-03-29T18:23:08.544Z,24.95
2019-03-29T18:25:36.935Z,24.93
2019-03-29T18:28:05.432Z,24.92
2019-03-29T18:30:35.058Z,24.89
2019-03-29T18:33:03.464Z,24.89
2019-03-29T18:35:31.882Z,24.89
2019-03-29T18:38:00.357Z,24.89
2019-03-29T18:40:28.903Z,24.88
2019-03-29T18:42:57.400Z,24.86
2019-03-29T18:45:25.873Z,24.83
2019-03-29T18:47:54.264Z,24.84
2019-03-29T18:50:22.862Z,24.82
2019-03-29T18:52:51.380Z,24.83
2019-03-29T18:55:19.833Z,24.81
2019-03-29T18:57:48.281Z,24.81
2019-03-29T19:00:18.437Z,24.81
2019-03-29T19:02:47.301Z,24.78
2019-03-29T19:05:23.528Z,24.79
2019-03-29T19:07:52.116Z,24.78
2019-03-29T19:10:20.664Z,24.81
2019-03-29T19:12:49.090Z,24.80
2019-03-29T19:15:17.539Z,24.81
2019-03-29T19:17:45.952Z,24.78
2019-03-29T19:20:26.751Z,24.77
2019-03-29T19:22:44.526Z,24.78
2019-03-29T19:25:12.909Z,24.76
2019-03-29T19:27:41.340Z,24.75
2019-03-29T19:30:10.312Z,24.72
2019-03-29T19:32:38.721Z,24.73
2019-03-29T19:35:07.157Z,24.74
2019-03-29T19:37:35.607Z,24.73
2019-03-29T19:40:04.218Z,24.73
2019-03-29T19:42:32.619Z,24.72
2019-03-29T19:45:01.020Z,24.71
2019-03-29T19:47:29.431Z,24.70
2019-03-29T19:49:57.856Z,24.66
2019-03-29T19:52:26.292Z,24.69
2019-03-29T19:54:54.775Z,24.66
2019-03-29T19:57:23.175Z,24.66
2019-03-29T19:59:51.811Z,24.65
2019-03-29T20:02:20.306Z,24.65
2019-03-29T20:04:48.909Z,24.62
2019-03-29T20:07:20.297Z,24.61
2019-03-29T20:09:47.431Z,24.61
2019-03-29T20:12:15.810Z,24.60
2019-03-29T20:14:44.269Z,24.59
2019-03-29T20:17:26.717Z,24.57
2019-03-29T20:19:42.752Z,24.57
2019-03-29T20:22:11.254Z,24.55
2019-03-29T20:24:39.732Z,24.56
2019-03-29T20:27:08.141Z,24.55
2019-03-29T20:29:36.548Z,24.55
2019-03-29T20:32:05.049Z,24.53
2019-03-29T20:34:33.472Z,24.56
2019-03-29T20:39:23.281Z,24.57
2019-03-29T20:41:51.874Z,24.52
2019-03-29T20:44:23.459Z,24.54
2019-03-29T20:46:51.905Z,24.52
2019-03-29T20:49:20.359Z,24.51
2019-03-29T20:51:48.857Z,24.45
2019-03-29T20:54:17.326Z,24.50
2019-03-29T20:56:45.765Z,24.49
2019-03-29T20:59:14.229Z,24.46
2019-03-29T21:01:42.718Z,24.45
2019-03-29T21:04:11.196Z,24.44
2019-03-29T21:06:39.623Z,24.43
2019-03-29T21:09:08.604Z,24.42
2019-03-29T21:11:37.037Z,24.40
2019-03-29T21:14:05.474Z,24.39
2019-03-29T21:16:33.916Z,24.42
2019-03-29T21:19:02.438Z,24.40
2019-03-29T21:21:30.863Z,24.37
2019-03-29T21:23:59.344Z,24.39
2019-03-29T21:26:27.789Z,24.38
2019-03-29T21:28:56.232Z,24.35
2019-03-29T21:31:24.661Z,24.35
2019-03-29T21:33:53.113Z,24.36
2019-03-29T21:36:21.605Z,24.35
2019-03-29T21:38:50.035Z,24.33
2019-03-29T21:41:18.492Z,24.30
2019-03-29T21:43:46.916Z,24.31
2019-03-29T21:46:15.396Z,24.30
2019-03-29T21:48:43.834Z,24.29
2019-03-29T21:51:12.288Z,24.28
2019-03-29T21:53:43.655Z,24.29
2019-03-29T21:56:10.857Z,24.30
2019-03-29T21:58:39.310Z,24.26
2019-03-29T22:01:07.720Z,24.26
2019-03-29T22:03:36.183Z,24.25
2019-03-29T22:06:04.639Z,24.22
2019-03-29T22:08:33.099Z,24.21
2019-03-29T22:11:01.552Z,24.21
2019-03-29T22:13:30.021Z,24.21
2019-03-29T22:15:58.476Z,24.17
2019-03-29T22:18:37.233Z,24.14
2019-03-29T22:20:57.029Z,24.16
2019-03-29T22:23:25.475Z,24.18
2019-03-29T22:25:54.049Z,24.13
2019-03-29T22:28:22.486Z,24.15
2019-03-29T22:30:50.942Z,24.15
2019-03-29T22:33:19.385Z,24.15
2019-03-29T22:35:47.854Z,24.11
2019-03-29T22:38:16.304Z,24.11
2019-03-29T22:40:44.777Z,24.09
2019-03-29T22:43:13.220Z,24.09
2019-03-29T22:45:41.658Z,24.07
2019-03-29T22:48:10.084Z,24.09
2019-03-29T22:50:38.566Z,24.07
2019-03-29T22:53:07.002Z,24.03
2019-03-29T22:55:35.475Z,24.05
2019-03-29T22:58:03.903Z,24.05
2019-03-29T23:03:27.035Z,24.04
2019-03-29T23:06:14.298Z,24.04
2019-03-29T23:08:42.773Z,24.05
2019-03-29T23:11:30.052Z,24.04
2019-03-29T23:13:58.513Z,24.03
2019-03-29T23:16:30.168Z,24.00
2019-03-29T23:21:30.713Z,23.99
2019-03-29T23:23:59.227Z,24.00
2019-03-29T23:26:27.634Z,23.99
2019-03-29T23:28:56.155Z,23.98
2019-03-29T23:31:24.638Z,23.97
2019-03-29T23:33:53.042Z,23.96
2019-03-29T23:36:21.517Z,23.96
2019-03-29T23:38:49.945Z,23.96
2019-03-29T23:41:18.402Z,23.95
2019-03-29T23:43:47.228Z,23.94
2019-03-29T23:46:16.948Z,23.92
2019-03-29T23:48:45.387Z,23.93
2019-03-29T23:51:13.797Z,23.90
2019-03-29T23:53:42.261Z,23.89
2019-03-29T23:56:10.693Z,23.92
2019-03-29T23:58:39.132Z,23.89
